createdAt,value
2018-10-19T00:01:54.515Z,26
2018-10-19T00:12:02.958Z,29
2018-10-19T00:22:13.067Z,31
2018-10-19T00:32:20.828Z,26
2018-10-19T00:42:29.171Z,29
2018-10-19T00:52:37.008Z,28
2018-10-19T01:02:45.977Z,24
2018-10-19T01:12:54.560Z,26
2018-10-19T01:23:03.803Z,29
2018-10-19T01:33:11.891Z,30
2018-10-19T01:43:18.544Z,31
2018-10-19T01:53:28.898Z,28
2018-10-19T02:03:37.917Z,27
2018-10-19T02:13:43.393Z,26
2018-10-19T02:23:52.236Z,27
2018-10-19T02:34:02.137Z,28
2018-10-19T02:44:12.022Z,26
2018-10-19T02:54:19.096Z,28
2018-10-19T03:04:27.604Z,27
2018-10-19T03:14:37.337Z,28
2018-10-19T03:24:46.943Z,30
2018-10-19T03:34:54.926Z,31
2018-10-19T03:45:04.258Z,28
2018-10-19T03:55:13.978Z,31
2018-10-19T04:05:21.634Z,25
2018-10-19T04:15:33.168Z,28
2018-10-19T04:25:41.870Z,28
2018-10-19T04:35:50.106Z,27
2018-10-19T04:45:58.780Z,25
2018-10-19T04:56:10.273Z,27
2018-10-19T04:56:55.346Z,27
2018-10-19T05:07:05.089Z,27
2018-10-19T05:17:12.933Z,28
2018-10-19T05:27:22.129Z,25
2018-10-19T05:37:29.525Z,26
2018-10-19T05:47:41.254Z,27
2018-10-19T05:57:47.299Z,25
2018-10-19T06:07:57.754Z,28
2018-10-19T06:18:05.434Z,25
2018-10-19T06:28:14.852Z,23
2018-10-19T06:38:22.828Z,22
2018-10-19T06:48:32.578Z,22
2018-10-19T06:58:40.819Z,29
2018-10-19T07:08:52.298Z,24
2018-10-19T07:18:59.871Z,23
2018-10-19T07:29:09.021Z,26
2018-10-19T07:39:16.694Z,24
2018-10-19T07:49:27.270Z,26
2018-10-19T07:59:38.642Z,26
2018-10-19T08:09:47.163Z,26
2018-10-19T08:19:55.640Z,26
2018-10-19T08:30:02.860Z,29
2018-10-19T08:40:12.590Z,26
2018-10-19T08:50:21.448Z,29
2018-10-19T09:00:32.697Z,26
2018-10-19T09:10:40.561Z,28
2018-10-19T09:20:52.436Z,31
2018-10-19T09:30:59.378Z,36
2018-10-19T09:41:09.138Z,33
2018-10-19T09:51:17.027Z,31
2018-10-19T09:56:35.235Z,27
2018-10-19T10:06:45.920Z,27
2018-10-19T10:16:55.917Z,25
2018-10-19T10:27:06.765Z,35
2018-10-19T10:37:16.596Z,31
2018-10-19T10:47:25.837Z,29
2018-10-19T10:57:32.974Z,34
2018-10-19T11:07:44.774Z,32
2018-10-19T11:17:54.039Z,32
2018-10-19T11:22:11.991Z,30
2018-10-19T11:29:24.988Z,33
2018-10-19T11:49:46.169Z,51
2018-10-19T11:59:51.695Z,37
2018-10-19T12:10:01.817Z,35
2018-10-19T12:20:13.478Z,42
2018-10-19T12:30:21.302Z,35
2018-10-19T12:33:37.738Z,35
2018-10-19T12:39:57.060Z,34
2018-10-19T12:41:11.418Z,33
2018-10-19T12:43:59.886Z,37
2018-10-19T12:48:13.179Z,34
2018-10-19T12:58:20.354Z,34
2018-10-19T13:08:31.046Z,36
2018-10-19T13:18:43.331Z,33
2018-10-19T13:28:50.799Z,35
2018-10-19T13:39:01.105Z,33
2018-10-19T13:49:10.702Z,35
2018-10-19T13:59:21.798Z,42
2018-10-19T14:09:32.528Z,41
2018-10-19T14:19:41.162Z,34
2018-10-19T14:21:54.570Z,38
2018-10-19T14:32:01.019Z,39
2018-10-19T14:42:09.719Z,45
2018-10-19T14:52:20.194Z,39
2018-10-19T15:02:28.035Z,41
2018-10-19T15:12:38.241Z,43
2018-10-19T15:22:47.666Z,74
2018-10-19T15:32:54.936Z,46
2018-10-19T15:43:03.753Z,47
2018-10-19T15:53:13.722Z,48
2018-10-19T16:01:34.833Z,52
2018-10-19T16:11:44.778Z,54
2018-10-19T16:21:52.755Z,51
2018-10-19T16:32:03.746Z,57
2018-10-19T16:42:13.027Z,57
2018-10-19T16:52:23.738Z,90
2018-10-19T17:02:29.384Z,80
2018-10-19T17:12:41.135Z,1
2018-10-19T17:22:17.309Z,62
2018-10-19T17:23:24.782Z,67
2018-10-19T17:33:34.404Z,76
2018-10-19T17:43:45.769Z,79
2018-10-19T17:53:54.262Z,75
2018-10-19T18:04:03.067Z,69
2018-10-19T18:14:12.272Z,49
2018-10-19T18:24:23.798Z,50
2018-10-19T18:34:32.796Z,49
2018-10-19T18:44:44.368Z,50
2018-10-19T18:54:50.217Z,46
2018-10-19T19:04:59.304Z,49
2018-10-19T19:15:10.627Z,49
2018-10-19T19:25:19.572Z,51
2018-10-19T19:35:27.691Z,46
2018-10-19T19:45:35.874Z,44
2018-10-19T19:55:45.268Z,0
2018-10-19T20:05:56.063Z,51
2018-10-19T20:16:06.102Z,47
2018-10-19T20:26:15.029Z,42
2018-10-19T20:36:23.276Z,45
2018-10-19T20:46:30.668Z,46
2018-10-19T20:56:40.798Z,41
2018-10-19T21:06:49.550Z,45
2018-10-19T21:16:58.028Z,43
2018-10-19T21:27:05.834Z,42
2018-10-19T21:37:14.558Z,41
2018-10-19T21:43:30.911Z,39
2018-10-19T21:53:42.439Z,39
2018-10-19T22:03:49.262Z,39
2018-10-19T22:13:57.047Z,41
2018-10-19T22:24:05.146Z,37
2018-10-19T22:28:19.151Z,39
2018-10-19T22:38:28.193Z,39
2018-10-19T22:48:36.839Z,40
2018-10-19T22:58:46.824Z,36
2018-10-19T23:08:55.812Z,34
2018-10-19T23:19:03.616Z,35
2018-10-19T23:29:12.240Z,41
2018-10-19T23:39:18.547Z,33
2018-10-19T23:49:27.434Z,34
2018-10-19T23:59:36.237Z,42
